Airport ID:KRTS
Update Time (UTC):12/11/2019 08:37
Wind Speed (Knots):3
Wind Direction (Magnetic):320
Temperature (°C):2
Dew Point (°C):-4
Humidity (%):68
Altimeter (inHg):30.3
Density Altitude (Feet):
Visibility (Miles):10+
Clouds (Hundreds of feet):CLR
Present Weather:
METAR:METAR KRTS 120835Z AUTO 00000KT 10SM CLR 02/M04 A3030 RMK AO2

The data displayed is for advisory purposes only and is not to be used for flight planning or operations.

This page is not automatically refreshed. Reload the page to see current data.